sensor_id;sensor_type;location;lat;lon;timestamp;pressure;altitude;pressure_sealevel;temperature;humidity
10706;BME280;5404;42.656;23.336;2023-01-23T00:00:48;95263.78;;;20.23;100.00
10706;BME280;5404;42.656;23.336;2023-01-23T00:03:16;95248.59;;;20.18;100.00
10706;BME280;5404;42.656;23.336;2023-01-23T00:05:43;95259.16;;;20.23;100.00
10706;BME280;5404;42.656;23.336;2023-01-23T00:08:08;95250.34;;;20.14;100.00
10706;BME280;5404;42.656;23.336;2023-01-23T00:10:34;95256.81;;;20.22;100.00
10706;BME280;5404;42.656;23.336;2023-01-23T00:12:59;95260.66;;;20.21;100.00
10706;BME280;5404;42.656;23.336;2023-01-23T00:15:24;95256.69;;;20.18;100.00
10706;BME280;5404;42.656;23.336;2023-01-23T00:17:52;95266.81;;;20.21;100.00
10706;BME280;5404;42.656;23.336;2023-01-23T00:20:18;95264.13;;;20.21;100.00
10706;BME280;5404;42.656;23.336;2023-01-23T00:22:45;95253.28;;;20.21;100.00
10706;BME280;5404;42.656;23.336;2023-01-23T00:25:10;95273.84;;;20.22;100.00
10706;BME280;5404;42.656;23.336;2023-01-23T00:27:36;95259.16;;;20.23;100.00
10706;BME280;5404;42.656;23.336;2023-01-23T00:30:02;95254.09;;;20.22;100.00
10706;BME280;5404;42.656;23.336;2023-01-23T00:32:27;95260.72;;;20.24;100.00
10706;BME280;5404;42.656;23.336;2023-01-23T00:34:53;95256.09;;;20.25;100.00
10706;BME280;5404;42.656;23.336;2023-01-23T00:37:18;95266.13;;;20.24;100.00
10706;BME280;5404;42.656;23.336;2023-01-23T00:39:44;95258.03;;;20.12;100.00
10706;BME280;5404;42.656;23.336;2023-01-23T00:42:10;95264.91;;;20.22;100.00
10706;BME280;5404;42.656;23.336;2023-01-23T00:44:35;95263.00;;;20.22;100.00
10706;BME280;5404;42.656;23.336;2023-01-23T00:47:01;95260.31;;;20.22;100.00
10706;BME280;5404;42.656;23.336;2023-01-23T00:49:26;95269.09;;;20.19;100.00
10706;BME280;5404;42.656;23.336;2023-01-23T00:51:52;95276.09;;;20.20;100.00
10706;BME280;5404;42.656;23.336;2023-01-23T00:54:20;95279.91;;;20.19;100.00
10706;BME280;5404;42.656;23.336;2023-01-23T00:56:50;95276.44;;;20.19;100.00
10706;BME280;5404;42.656;23.336;2023-01-23T00:59:15;95277.56;;;20.18;100.00
10706;BME280;5404;42.656;23.336;2023-01-23T01:01:41;95277.56;;;20.18;100.00
10706;BME280;5404;42.656;23.336;2023-01-23T01:04:06;95276.78;;;20.17;100.00
10706;BME280;5404;42.656;23.336;2023-01-23T01:06:31;95274.25;;;20.12;100.00
10706;BME280;5404;42.656;23.336;2023-01-23T01:08:58;95277.41;;;20.14;100.00
10706;BME280;5404;42.656;23.336;2023-01-23T01:11:26;95281.72;;;20.15;100.00
10706;BME280;5404;42.656;23.336;2023-01-23T01:13:52;95282.81;;;20.14;100.00
10706;BME280;5404;42.656;23.336;2023-01-23T01:16:18;95280.13;;;20.14;100.00
10706;BME280;5404;42.656;23.336;2023-01-23T01:18:43;95275.66;;;20.06;100.00
10706;BME280;5404;42.656;23.336;2023-01-23T01:21:12;95290.19;;;20.14;100.00
10706;BME280;5404;42.656;23.336;2023-01-23T01:23:39;95270.94;;;20.03;100.00
10706;BME280;5404;42.656;23.336;2023-01-23T01:26:05;95296.34;;;20.14;100.00
10706;BME280;5404;42.656;23.336;2023-01-23T01:28:34;95295.25;;;20.15;100.00
10706;BME280;5404;42.656;23.336;2023-01-23T01:31:05;95305.28;;;20.15;100.00
10706;BME280;5404;42.656;23.336;2023-01-23T01:33:31;95305.28;;;20.15;100.00
10706;BME280;5404;42.656;23.336;2023-01-23T01:35:59;95303.38;;;20.15;100.00
10706;BME280;5404;42.656;23.336;2023-01-23T01:38:24;95312.28;;;20.16;100.00
10706;BME280;5404;42.656;23.336;2023-01-23T01:40:50;95307.66;;;20.16;100.00
10706;BME280;5404;42.656;23.336;2023-01-23T01:43:22;95309.13;;;20.14;100.00
10706;BME280;5404;42.656;23.336;2023-01-23T01:48:21;95312.94;;;20.13;100.00
10706;BME280;5404;42.656;23.336;2023-01-23T01:50:48;95302.91;;;20.13;100.00
10706;BME280;5404;42.656;23.336;2023-01-23T01:53:14;95308.31;;;20.13;100.00
10706;BME280;5404;42.656;23.336;2023-01-23T01:55:40;95312.13;;;20.12;100.00
10706;BME280;5404;42.656;23.336;2023-01-23T01:58:06;95313.28;;;20.11;100.00
10706;BME280;5404;42.656;23.336;2023-01-23T02:00:32;95310.56;;;20.11;100.00
10706;BME280;5404;42.656;23.336;2023-01-23T02:02:58;95310.56;;;20.11;100.00
10706;BME280;5404;42.656;23.336;2023-01-23T02:05:28;95314.84;;;20.12;100.00
10706;BME280;5404;42.656;23.336;2023-01-23T02:10:21;95318.69;;;20.11;100.00
10706;BME280;5404;42.656;23.336;2023-01-23T02:12:48;95316.00;;;20.11;100.00
10706;BME280;5404;42.656;23.336;2023-01-23T02:15:14;95323.31;;;20.11;100.00
10706;BME280;5404;42.656;23.336;2023-01-23T02:17:40;95299.44;;;20.01;100.00
10706;BME280;5404;42.656;23.336;2023-01-23T02:20:39;95321.06;;;20.13;100.00
10706;BME280;5404;42.656;23.336;2023-01-23T02:23:36;95325.66;;;20.12;100.00
10706;BME280;5404;42.656;23.336;2023-01-23T02:26:12;95317.13;;;20.10;100.00
10706;BME280;5404;42.656;23.336;2023-01-23T02:28:46;95312.06;;;20.09;100.00
10706;BME280;5404;42.656;23.336;2023-01-23T02:31:13;95315.19;;;20.11;100.00
10706;BME280;5404;42.656;23.336;2023-01-23T02:36:04;95318.34;;;20.13;100.00
10706;BME280;5404;42.656;23.336;2023-01-23T02:38:43;95323.31;;;20.11;100.00
10706;BME280;5404;42.656;23.336;2023-01-23T02:41:12;95323.66;;;20.09;100.00
10706;BME280;5404;42.656;23.336;2023-01-23T02:43:38;95323.19;;;20.07;100.00
10706;BME280;5404;42.656;23.336;2023-01-23T02:46:06;95321.28;;;20.08;100.00
10706;BME280;5404;42.656;23.336;2023-01-23T02:48:32;95325.91;;;20.07;100.00
10706;BME280;5404;42.656;23.336;2023-01-23T02:50:58;95328.97;;;20.06;100.00
10706;BME280;5404;42.656;23.336;2023-01-23T02:53:23;95326.59;;;20.04;100.00
10706;BME280;5404;42.656;23.336;2023-01-23T02:55:50;95334.38;;;20.06;100.00
10706;BME280;5404;42.656;23.336;2023-01-23T02:58:15;95317.38;;;20.05;100.00
10706;BME280;5404;42.656;23.336;2023-01-23T03:00:59;95318.13;;;20.06;100.00
10706;BME280;5404;42.656;23.336;2023-01-23T03:03:24;95322.78;;;20.05;100.00
10706;BME280;5404;42.656;23.336;2023-01-23T03:05:50;95321.19;;;20.04;100.00
10706;BME280;5404;42.656;23.336;2023-01-23T03:08:15;95321.19;;;20.04;100.00
10706;BME280;5404;42.656;23.336;2023-01-23T03:10:41;95317.38;;;20.05;100.00
10706;BME280;5404;42.656;23.336;2023-01-23T03:13:07;95326.59;;;20.04;100.00
10706;BME280;5404;42.656;23.336;2023-01-23T03:15:34;95320.38;;;20.04;100.00
10706;BME280;5404;42.656;23.336;2023-01-23T03:18:02;95318.94;;;20.06;100.00
10706;BME280;5404;42.656;23.336;2023-01-23T03:20:28;95317.38;;;20.05;100.00
10706;BME280;5404;42.656;23.336;2023-01-23T03:22:53;95320.06;;;20.05;100.00
10706;BME280;5404;42.656;23.336;2023-01-23T03:25:19;95319.28;;;20.05;100.00
10706;BME280;5404;42.656;23.336;2023-01-23T03:27:45;95314.97;;;20.04;100.00
10706;BME280;5404;42.656;23.336;2023-01-23T03:30:11;95319.97;;;20.02;100.00
10706;BME280;5404;42.656;23.336;2023-01-23T03:32:38;95312.97;;;20.01;100.00
10706;BME280;5404;42.656;23.336;2023-01-23T03:35:05;95307.91;;;19.99;100.00
10706;BME280;5404;42.656;23.336;2023-01-23T03:37:31;95306.34;;;19.98;100.00
10706;BME280;5404;42.656;23.336;2023-01-23T03:39:56;95318.72;;;19.99;100.00
10706;BME280;5404;42.656;23.336;2023-01-23T03:42:40;95312.84;;;19.97;100.00
10706;BME280;5404;42.656;23.336;2023-01-23T03:45:06;95307.00;;;19.95;100.00
10706;BME280;5404;42.656;23.336;2023-01-23T03:47:32;95319.41;;;19.96;100.00
10706;BME280;5404;42.656;23.336;2023-01-23T03:49:58;95306.00;;;19.88;100.00
10706;BME280;5404;42.656;23.336;2023-01-23T03:52:23;95318.16;;;19.94;100.00
10706;BME280;5404;42.656;23.336;2023-01-23T03:54:50;95314.69;;;19.93;100.00
10706;BME280;5404;42.656;23.336;2023-01-23T03:57:15;95311.97;;;19.93;100.00
10706;BME280;5404;42.656;23.336;2023-01-23T03:59:41;95326.28;;;19.94;100.00
10706;BME280;5404;42.656;23.336;2023-01-23T04:02:06;95320.84;;;19.94;100.00
10706;BME280;5404;42.656;23.336;2023-01-23T04:04:32;95324.72;;;19.93;100.00
10706;BME280;5404;42.656;23.336;2023-01-23T04:06:58;95325.81;;;19.92;100.00
10706;BME280;5404;42.656;23.336;2023-01-23T04:09:24;95336.63;;;19.92;100.00
10706;BME280;5404;42.656;23.336;2023-01-23T04:11:58;95334.28;;;19.90;100.00
10706;BME280;5404;42.656;23.336;2023-01-23T04:14:25;95335.88;;;19.91;100.00
10706;BME280;5404;42.656;23.336;2023-01-23T04:16:51;95341.97;;;19.88;100.00
10706;BME280;5404;42.656;23.336;2023-01-23T04:19:18;95342.38;;;19.90;100.00
10706;BME280;5404;42.656;23.336;2023-01-23T04:21:47;95333.84;;;19.88;100.00
10706;BME280;5404;42.656;23.336;2023-01-23T04:24:14;95335.75;;;19.88;100.00
10706;BME280;5404;42.656;23.336;2023-01-23T04:26:40;95336.88;;;19.87;100.00
10706;BME280;5404;42.656;23.336;2023-01-23T04:29:05;95341.41;;;19.83;100.00
10706;BME280;5404;42.656;23.336;2023-01-23T04:31:32;95341.06;;;19.84;100.00
10706;BME280;5404;42.656;23.336;2023-01-23T04:33:57;95348.38;;;19.84;100.00
10706;BME280;5404;42.656;23.336;2023-01-23T04:36:23;95335.44;;;19.77;100.00
10706;BME280;5404;42.656;23.336;2023-01-23T04:38:48;95346.81;;;19.83;100.00
10706;BME280;5404;42.656;23.336;2023-01-23T04:41:23;95344.44;;;19.81;100.00
10706;BME280;5404;42.656;23.336;2023-01-23T04:43:49;95346.34;;;19.81;100.00
10706;BME280;5404;42.656;23.336;2023-01-23T04:46:15;95343.66;;;19.81;100.00
10706;BME280;5404;42.656;23.336;2023-01-23T04:48:40;95347.16;;;19.81;100.00
10706;BME280;5404;42.656;23.336;2023-01-23T04:51:06;95341.75;;;19.81;100.00
10706;BME280;5404;42.656;23.336;2023-01-23T04:53:31;95340.94;;;19.81;100.00
10706;BME280;5404;42.656;23.336;2023-01-23T04:55:58;95346.00;;;19.82;100.00
10706;BME280;5404;42.656;23.336;2023-01-23T04:58:23;95337.91;;;19.82;100.00
10706;BME280;5404;42.656;23.336;2023-01-23T05:00:49;95339.69;;;19.78;100.00
10706;BME280;5404;42.656;23.336;2023-01-23T05:03:15;95342.16;;;19.83;100.00
10706;BME280;5404;42.656;23.336;2023-01-23T05:05:41;95346.00;;;19.82;100.00
10706;BME280;5404;42.656;23.336;2023-01-23T05:08:09;95342.97;;;19.84;100.00
10706;BME280;5404;42.656;23.336;2023-01-23T05:10:34;95347.91;;;19.82;100.00
10706;BME280;5404;42.656;23.336;2023-01-23T05:13:00;95349.06;;;19.81;100.00
10706;BME280;5404;42.656;23.336;2023-01-23T05:15:25;95341.28;;;19.79;100.00
10706;BME280;5404;42.656;23.336;2023-01-23T05:17:51;95358.63;;;19.78;100.00
10706;BME280;5404;42.656;23.336;2023-01-23T05:20:16;95351.66;;;19.77;100.00
10706;BME280;5404;42.656;23.336;2023-01-23T05:22:42;95360.91;;;19.76;100.00
10706;BME280;5404;42.656;23.336;2023-01-23T05:25:20;95357.75;;;19.74;100.00
10706;BME280;5404;42.656;23.336;2023-01-23T05:27:46;95358.09;;;19.73;100.00
10706;BME280;5404;42.656;23.336;2023-01-23T05:30:12;95366.19;;;19.73;100.00
10706;BME280;5404;42.656;23.336;2023-01-23T05:32:38;95369.22;;;19.71;100.00
10706;BME280;5404;42.656;23.336;2023-01-23T05:35:03;95378.13;;;19.71;100.00
10706;BME280;5404;42.656;23.336;2023-01-23T05:37:29;95382.72;;;19.71;100.00
10706;BME280;5404;42.656;23.336;2023-01-23T05:39:54;95381.63;;;19.72;100.00
10706;BME280;5404;42.656;23.336;2023-01-23T05:42:20;95392.44;;;19.72;100.00
10706;BME280;5404;42.656;23.336;2023-01-23T05:44:45;95392.78;;;19.70;100.00
10706;BME280;5404;42.656;23.336;2023-01-23T05:47:11;95404.38;;;19.71;100.00
10706;BME280;5404;42.656;23.336;2023-01-23T05:49:36;95404.38;;;19.71;100.00
10706;BME280;5404;42.656;23.336;2023-01-23T05:52:02;95404.38;;;19.71;100.00
10706;BME280;5404;42.656;23.336;2023-01-23T05:54:27;95412.94;;;19.73;100.00
10706;BME280;5404;42.656;23.336;2023-01-23T05:56:53;95407.41;;;19.69;100.00
10706;BME280;5404;42.656;23.336;2023-01-23T05:59:18;95411.13;;;19.65;100.00
10706;BME280;5404;42.656;23.336;2023-01-23T06:01:44;95412.69;;;19.66;100.00
10706;BME280;5404;42.656;23.336;2023-01-23T06:04:09;95423.28;;;19.71;100.00
10706;BME280;5404;42.656;23.336;2023-01-23T06:06:37;95418.44;;;19.64;100.00
10706;BME280;5404;42.656;23.336;2023-01-23T06:09:02;95426.00;;;19.71;100.00
10706;BME280;5404;42.656;23.336;2023-01-23T06:11:28;95434.91;;;19.71;100.00
10706;BME280;5404;42.656;23.336;2023-01-23T06:13:53;95439.50;;;19.71;100.00
10706;BME280;5404;42.656;23.336;2023-01-23T06:16:18;95407.50;;;19.49;100.00
10706;BME280;5404;42.656;23.336;2023-01-23T06:18:44;95440.66;;;19.70;100.00
10706;BME280;5404;42.656;23.336;2023-01-23T06:24:00;95443.03;;;19.71;100.00
10706;BME280;5404;42.656;23.336;2023-01-23T06:26:25;95441.13;;;19.72;100.00
10706;BME280;5404;42.656;23.336;2023-01-23T06:28:51;95444.63;;;19.73;100.00
10706;BME280;5404;42.656;23.336;2023-01-23T06:31:16;95447.19;;;19.69;100.00
10706;BME280;5404;42.656;23.336;2023-01-23T06:33:42;95427.34;;;19.65;100.00
10706;BME280;5404;42.656;23.336;2023-01-23T06:36:08;95454.28;;;19.73;100.00
10706;BME280;5404;42.656;23.336;2023-01-23T06:38:34;95443.47;;;19.73;100.00
10706;BME280;5404;42.656;23.336;2023-01-23T06:40:59;95448.09;;;19.73;100.00
10706;BME280;5404;42.656;23.336;2023-01-23T06:43:25;95449.22;;;19.72;100.00
10706;BME280;5404;42.656;23.336;2023-01-23T06:45:51;95445.59;;;19.68;100.00
10706;BME280;5404;42.656;23.336;2023-01-23T06:48:17;95449.22;;;19.72;100.00
10706;BME280;5404;42.656;23.336;2023-01-23T06:51:54;95456.53;;;19.71;100.00
10706;BME280;5404;42.656;23.336;2023-01-23T06:54:19;95453.38;;;19.69;100.00
10706;BME280;5404;42.656;23.336;2023-01-23T06:56:44;95462.75;;;19.72;100.00
10706;BME280;5404;42.656;23.336;2023-01-23T06:59:10;95462.75;;;19.72;100.00
10706;BME280;5404;42.656;23.336;2023-01-23T07:01:35;95467.00;;;19.73;100.00
10706;BME280;5404;42.656;23.336;2023-01-23T07:04:01;95471.31;;;19.74;100.00
10706;BME280;5404;42.656;23.336;2023-01-23T07:06:26;95477.50;;;19.74;100.00
10706;BME280;5404;42.656;23.336;2023-01-23T07:08:52;95482.59;;;19.76;100.00
10706;BME280;5404;42.656;23.336;2023-01-23T07:11:17;95481.00;;;19.75;100.00
10706;BME280;5404;42.656;23.336;2023-01-23T07:13:43;95480.66;;;19.77;100.00
10706;BME280;5404;42.656;23.336;2023-01-23T07:16:09;95488.78;;;19.77;100.00
10706;BME280;5404;42.656;23.336;2023-01-23T07:18:34;95493.06;;;19.78;100.00
10706;BME280;5404;42.656;23.336;2023-01-23T07:21:03;95488.44;;;19.78;100.00
10706;BME280;5404;42.656;23.336;2023-01-23T07:23:28;95491.13;;;19.78;100.00
10706;BME280;5404;42.656;23.336;2023-01-23T07:25:58;95487.31;;;19.79;100.00
10706;BME280;5404;42.656;23.336;2023-01-23T07:28:24;95507.03;;;19.80;100.00
10706;BME280;5404;42.656;23.336;2023-01-23T07:30:49;95505.44;;;19.79;100.00
10706;BME280;5404;42.656;23.336;2023-01-23T07:33:15;95498.13;;;19.79;100.00
10706;BME280;5404;42.656;23.336;2023-01-23T07:35:40;95509.41;;;19.81;100.00
10706;BME280;5404;42.656;23.336;2023-01-23T07:38:06;95515.94;;;19.80;100.00
10706;BME280;5404;42.656;23.336;2023-01-23T07:40:31;95512.34;;;19.76;100.00
10706;BME280;5404;42.656;23.336;2023-01-23T07:42:57;95508.97;;;19.79;100.00
10706;BME280;5404;42.656;23.336;2023-01-23T07:45:22;95513.56;;;19.79;100.00
10706;BME280;5404;42.656;23.336;2023-01-23T07:47:48;95514.69;;;19.78;100.00
10706;BME280;5404;42.656;23.336;2023-01-23T07:50:13;95510.06;;;19.78;100.00
10706;BME280;5404;42.656;23.336;2023-01-23T07:52:39;95515.13;;;19.80;100.00
10706;BME280;5404;42.656;23.336;2023-01-23T07:55:05;95513.69;;;19.82;100.00
10706;BME280;5404;42.656;23.336;2023-01-23T07:57:31;95520.22;;;19.81;100.00
10706;BME280;5404;42.656;23.336;2023-01-23T07:59:58;95526.06;;;19.83;100.00
10706;BME280;5404;42.656;23.336;2023-01-23T08:02:23;95526.19;;;19.87;100.00
10706;BME280;5404;42.656;23.336;2023-01-23T08:04:50;95538.28;;;19.89;100.00
10706;BME280;5404;42.656;23.336;2023-01-23T08:07:15;95534.09;;;19.92;100.00
10706;BME280;5404;42.656;23.336;2023-01-23T08:09:42;95546.16;;;19.94;100.00
10706;BME280;5404;42.656;23.336;2023-01-23T08:12:07;95551.91;;;19.93;100.00
10706;BME280;5404;42.656;23.336;2023-01-23T08:14:32;95544.91;;;19.92;100.00
10706;BME280;5404;42.656;23.336;2023-01-23T08:16:58;95526.06;;;19.83;100.00
10706;BME280;5404;42.656;23.336;2023-01-23T08:19:25;95550.31;;;19.92;100.00
10706;BME280;5404;42.656;23.336;2023-01-23T08:21:51;95563.19;;;19.95;100.00
10706;BME280;5404;42.656;23.336;2023-01-23T08:24:17;95562.53;;;19.98;100.00
10706;BME280;5404;42.656;23.336;2023-01-23T08:26:42;95580.78;;;20.01;100.00
10706;BME280;5404;42.656;23.336;2023-01-23T08:29:08;95590.28;;;20.07;100.00
10706;BME280;5404;42.656;23.336;2023-01-23T08:31:35;95595.03;;;20.10;100.00
10706;BME280;5404;42.656;23.336;2023-01-23T08:34:01;95595.94;;;20.14;100.00
10706;BME280;5404;42.656;23.336;2023-01-23T08:36:27;95611.53;;;20.17;100.00
10706;BME280;5404;42.656;23.336;2023-01-23T08:38:52;95608.94;;;20.20;100.00
10706;BME280;5404;42.656;23.336;2023-01-23T08:41:18;95606.81;;;20.26;100.00
10706;BME280;5404;42.656;23.336;2023-01-23T08:43:44;95621.59;;;20.28;100.00
10706;BME280;5404;42.656;23.336;2023-01-23T08:46:09;95608.38;;;20.27;100.00
10706;BME280;5404;42.656;23.336;2023-01-23T08:48:35;95605.81;;;20.30;100.00
10706;BME280;5404;42.656;23.336;2023-01-23T08:51:07;95582.72;;;20.12;100.00
10706;BME280;5404;42.656;23.336;2023-01-23T08:53:33;95616.28;;;20.32;100.00
10706;BME280;5404;42.656;23.336;2023-01-23T08:56:03;95602.75;;;20.32;100.00
10706;BME280;5404;42.656;23.336;2023-01-23T08:58:30;95608.28;;;20.35;100.00
10706;BME280;5404;42.656;23.336;2023-01-23T09:00:56;95592.72;;;20.32;100.00
10706;BME280;5404;42.656;23.336;2023-01-23T09:03:21;95609.84;;;20.36;100.00
10706;BME280;5404;42.656;23.336;2023-01-23T09:05:47;95608.75;;;20.37;100.00
10706;BME280;5404;42.656;23.336;2023-01-23T09:08:13;95601.44;;;20.38;100.00
10706;BME280;5404;42.656;23.336;2023-01-23T09:10:38;95602.19;;;20.38;100.00
10706;BME280;5404;42.656;23.336;2023-01-23T09:13:04;95604.56;;;20.40;100.00
10706;BME280;5404;42.656;23.336;2023-01-23T09:15:30;95606.50;;;20.39;100.00
10706;BME280;5404;42.656;23.336;2023-01-23T09:17:56;95598.94;;;20.33;100.00
10706;BME280;5404;42.656;23.336;2023-01-23T09:20:22;95610.31;;;20.38;100.00
10706;BME280;5404;42.656;23.336;2023-01-23T09:22:51;95608.75;;;20.37;100.00
10706;BME280;5404;42.656;23.336;2023-01-23T09:25:17;95609.97;;;20.40;100.00
10706;BME280;5404;42.656;23.336;2023-01-23T09:27:43;95605.38;;;20.40;100.00
10706;BME280;5404;42.656;23.336;2023-01-23T09:30:09;95602.19;;;20.38;100.00
10706;BME280;5404;42.656;23.336;2023-01-23T09:32:35;95603.69;;;20.36;100.00
10706;BME280;5404;42.656;23.336;2023-01-23T09:35:00;95605.94;;;20.34;100.00
10706;BME280;5404;42.656;23.336;2023-01-23T09:37:29;95589.56;;;20.30;100.00
10706;BME280;5404;42.656;23.336;2023-01-23T09:40:16;95582.88;;;20.28;100.00
10706;BME280;5404;42.656;23.336;2023-01-23T09:42:42;95585.47;;;20.24;100.00
10706;BME280;5404;42.656;23.336;2023-01-23T09:45:11;95590.47;;;20.22;100.00
10706;BME280;5404;42.656;23.336;2023-01-23T09:47:50;95584.13;;;20.18;100.00
10706;BME280;5404;42.656;23.336;2023-01-23T09:50:27;95560.88;;;20.05;100.00
10706;BME280;5404;42.656;23.336;2023-01-23T09:53:04;95571.91;;;20.12;100.00
10706;BME280;5404;42.656;23.336;2023-01-23T09:55:41;95571.47;;;20.10;100.00
10706;BME280;5404;42.656;23.336;2023-01-23T09:58:18;95583.41;;;20.09;100.00
10706;BME280;5404;42.656;23.336;2023-01-23T10:00:46;95587.25;;;20.08;100.00
10706;BME280;5404;42.656;23.336;2023-01-23T10:03:14;95587.56;;;20.07;100.00
10706;BME280;5404;42.656;23.336;2023-01-23T10:06:20;95594.09;;;20.06;100.00
10706;BME280;5404;42.656;23.336;2023-01-23T10:12:00;95583.94;;;20.03;100.00
10706;BME280;5404;42.656;23.336;2023-01-23T10:17:25;95585.41;;;20.00;100.00
10706;BME280;5404;42.656;23.336;2023-01-23T10:25:31;95579.91;;;19.97;100.00
10706;BME280;5404;42.656;23.336;2023-01-23T10:28:15;95573.78;;;19.88;100.00
10706;BME280;5404;42.656;23.336;2023-01-23T10:30:46;95577.50;;;19.95;100.00
10706;BME280;5404;42.656;23.336;2023-01-23T10:33:16;95571.31;;;19.95;100.00
10706;BME280;5404;42.656;23.336;2023-01-23T10:35:49;95572.44;;;19.94;100.00
10706;BME280;5404;42.656;23.336;2023-01-23T10:38:44;95574.34;;;19.93;100.00
10706;BME280;5404;42.656;23.336;2023-01-23T10:41:12;95586.28;;;19.92;100.00
10706;BME280;5404;42.656;23.336;2023-01-23T10:43:38;95579.78;;;19.93;100.00
10706;BME280;5404;42.656;23.336;2023-01-23T10:46:14;95572.09;;;19.95;100.00
10706;BME280;5404;42.656;23.336;2023-01-23T10:48:46;95578.28;;;19.96;100.00
10706;BME280;5404;42.656;23.336;2023-01-23T10:56:34;95575.25;;;19.97;100.00
10706;BME280;5404;42.656;23.336;2023-01-23T10:59:04;95581.59;;;20.01;100.00
10706;BME280;5404;42.656;23.336;2023-01-23T11:01:34;95575.50;;;20.04;100.00
10706;BME280;5404;42.656;23.336;2023-01-23T11:04:16;95573.72;;;20.08;100.00
10706;BME280;5404;42.656;23.336;2023-01-23T11:06:43;95570.88;;;20.05;100.00
10706;BME280;5404;42.656;23.336;2023-01-23T11:09:19;95575.41;;;20.13;100.00
10706;BME280;5404;42.656;23.336;2023-01-23T11:12:04;95575.06;;;20.14;100.00
10706;BME280;5404;42.656;23.336;2023-01-23T11:14:31;95578.09;;;20.13;100.00
10706;BME280;5404;42.656;23.336;2023-01-23T11:17:00;95574.06;;;20.07;100.00
10706;BME280;5404;42.656;23.336;2023-01-23T11:19:30;95572.56;;;20.09;100.00
10706;BME280;5404;42.656;23.336;2023-01-23T11:22:03;95573.38;;;20.10;100.00
10706;BME280;5404;42.656;23.336;2023-01-23T11:30:21;95576.75;;;20.07;100.00
10706;BME280;5404;42.656;23.336;2023-01-23T11:32:53;95564.69;;;20.04;100.00
10706;BME280;5404;42.656;23.336;2023-01-23T11:35:26;95580.09;;;20.04;100.00
10706;BME280;5404;42.656;23.336;2023-01-23T11:37:54;95563.00;;;20.00;100.00
10706;BME280;5404;42.656;23.336;2023-01-23T11:40:21;95575.16;;;20.06;100.00
10706;BME280;5404;42.656;23.336;2023-01-23T11:42:47;95557.25;;;20.01;100.00
10706;BME280;5404;42.656;23.336;2023-01-23T11:50:34;95557.56;;;20.00;100.00
10706;BME280;5404;42.656;23.336;2023-01-23T11:53:20;95570.88;;;20.05;100.00
10706;BME280;5404;42.656;23.336;2023-01-23T12:04:56;95563.22;;;20.07;100.00
10706;BME280;5404;42.656;23.336;2023-01-23T12:07:23;95559.03;;;20.09;100.00
10706;BME280;5404;42.656;23.336;2023-01-23T12:10:34;95564.91;;;20.11;100.00
10706;BME280;5404;42.656;23.336;2023-01-23T12:16:22;95560.75;;;20.14;100.00
10706;BME280;5404;42.656;23.336;2023-01-23T12:19:33;95564.25;;;20.14;100.00
10706;BME280;5404;42.656;23.336;2023-01-23T12:25:13;95574.44;;;20.17;100.00
10706;BME280;5404;42.656;23.336;2023-01-23T12:27:51;95579.84;;;20.17;100.00
10706;BME280;5404;42.656;23.336;2023-01-23T12:33:22;95569.16;;;20.21;100.00
10706;BME280;5404;42.656;23.336;2023-01-23T12:41:35;95565.53;;;20.17;100.00
10706;BME280;5404;42.656;23.336;2023-01-23T12:44:21;95570.13;;;20.16;100.00
10706;BME280;5404;42.656;23.336;2023-01-23T12:47:00;95573.16;;;20.15;100.00
10706;BME280;5404;42.656;23.336;2023-01-23T12:49:57;95570.44;;;20.15;100.00
10706;BME280;5404;42.656;23.336;2023-01-23T12:52:51;95573.16;;;20.15;100.00
10706;BME280;5404;42.656;23.336;2023-01-23T12:55:29;95560.41;;;20.15;100.00
10706;BME280;5404;42.656;23.336;2023-01-23T12:57:58;95563.94;;;20.16;100.00
10706;BME280;5404;42.656;23.336;2023-01-23T13:00:45;95560.91;;;20.17;100.00
10706;BME280;5404;42.656;23.336;2023-01-23T13:12:24;95573.50;;;20.13;100.00
10706;BME280;5404;42.656;23.336;2023-01-23T13:17:47;95561.63;;;20.06;100.00
10706;BME280;5404;42.656;23.336;2023-01-23T13:20:22;95575.28;;;20.09;100.00
10706;BME280;5404;42.656;23.336;2023-01-23T13:23:20;95567.97;;;20.10;100.00
10706;BME280;5404;42.656;23.336;2023-01-23T13:25:46;95568.53;;;20.03;100.00
10706;BME280;5404;42.656;23.336;2023-01-23T13:31:24;95583.41;;;20.09;100.00
10706;BME280;5404;42.656;23.336;2023-01-23T13:33:50;95577.22;;;20.09;100.00
10706;BME280;5404;42.656;23.336;2023-01-23T13:39:02;95575.97;;;20.06;100.00
10706;BME280;5404;42.656;23.336;2023-01-23T13:41:31;95588.34;;;20.07;100.00
10706;BME280;5404;42.656;23.336;2023-01-23T13:49:07;95582.50;;;20.05;100.00
10706;BME280;5404;42.656;23.336;2023-01-23T13:51:57;95578.19;;;20.04;100.00
10706;BME280;5404;42.656;23.336;2023-01-23T13:54:30;95577.41;;;20.04;100.00
10706;BME280;5404;42.656;23.336;2023-01-23T13:57:18;95584.06;;;20.06;100.00
10706;BME280;5404;42.656;23.336;2023-01-23T13:59:46;95582.63;;;20.09;100.00
10706;BME280;5404;42.656;23.336;2023-01-23T14:02:54;95585.34;;;20.09;100.00
10706;BME280;5404;42.656;23.336;2023-01-23T14:05:40;95576.41;;;20.08;100.00
10706;BME280;5404;42.656;23.336;2023-01-23T14:08:15;95587.25;;;20.08;100.00
10706;BME280;5404;42.656;23.336;2023-01-23T14:10:45;95590.75;;;20.09;100.00
10706;BME280;5404;42.656;23.336;2023-01-23T14:13:16;95591.50;;;20.09;100.00
10706;BME280;5404;42.656;23.336;2023-01-23T14:15:48;95586.44;;;20.08;100.00
10706;BME280;5404;42.656;23.336;2023-01-23T14:18:57;95596.94;;;20.09;100.00
10706;BME280;5404;42.656;23.336;2023-01-23T14:21:28;95601.09;;;20.07;100.00
10706;BME280;5404;42.656;23.336;2023-01-23T14:23:59;95600.31;;;20.06;100.00
10706;BME280;5404;42.656;23.336;2023-01-23T14:26:33;95606.84;;;20.05;100.00